Time,TemperatureF,DewpointF,PressureIn,WindDirection,WindDirectionDegrees,WindSpeedMPH,WindSpeedGustMPH,Humidity,HourlyPrecipIn,Conditions,Clouds,dailyrainin,SoftwareType,DateUTC
2013-03-20 00:03:00,28.0,19.0,30.06,North,360,0.0,3.0,68,0.00,,,0.01,,2013-03-20 04:03:00,
2013-03-20 00:12:00,28.0,19.0,30.06,North,360,0.0,3.0,68,0.00,,,0.01,,2013-03-20 04:12:00,
2013-03-20 00:23:00,28.0,19.0,30.07,WNW,283,0.0,4.0,69,0.00,,,0.01,,2013-03-20 04:23:00,
2013-03-20 00:32:00,28.0,19.0,30.07,West,279,0.0,10.0,69,0.00,,,0.01,,2013-03-20 04:32:00,
2013-03-20 00:43:00,28.0,19.0,30.07,West,279,0.0,10.0,69,0.00,,,0.01,,2013-03-20 04:43:00,
2013-03-20 00:53:00,27.0,19.0,30.07,WNW,298,1.0,5.0,71,0.00,,,0.01,,2013-03-20 04:53:00,
2013-03-20 01:02:00,27.0,19.0,30.07,WNW,303,1.0,6.0,71,0.00,,,0.01,,2013-03-20 05:02:00,
2013-03-20 01:12:00,27.0,19.0,30.07,SE,145,0.0,3.0,71,0.00,,,0.01,,2013-03-20 05:12:00,
2013-03-20 01:23:00,27.0,19.0,30.07,SE,145,0.0,3.0,71,0.00,,,0.01,,2013-03-20 05:23:00,
2013-03-20 01:32:00,27.0,19.0,30.07,NW,315,0.0,9.0,70,0.00,,,0.01,,2013-03-20 05:32:00,
2013-03-20 01:42:00,27.0,19.0,30.07,NW,315,0.0,9.0,70,0.00,,,0.01,,2013-03-20 05:42:00,
2013-03-20 01:53:00,27.0,19.0,30.07,West,278,0.0,5.0,71,0.00,,,0.01,,2013-03-20 05:53:00,
2013-03-20 02:02:00,27.0,19.0,30.06,NNE,16,1.0,5.0,70,0.00,,,0.01,,2013-03-20 06:02:00,
2013-03-20 02:12:00,27.0,19.0,30.06,NNE,16,1.0,5.0,70,0.00,,,0.01,,2013-03-20 06:12:00,
2013-03-20 02:22:00,27.0,18.0,30.06,WNW,300,1.0,6.0,69,0.00,,,0.01,,2013-03-20 06:22:00,
2013-03-20 02:32:00,27.0,18.0,30.06,WNW,300,1.0,6.0,69,0.00,,,0.01,,2013-03-20 06:32:00,
2013-03-20 02:42:00,27.0,18.0,30.06,WNW,300,1.0,6.0,69,0.00,,,0.01,,2013-03-20 06:42:00,
2013-03-20 02:53:00,27.0,19.0,30.06,NNW,346,0.0,6.0,70,0.00,,,0.01,,2013-03-20 06:53:00,
2013-03-20 03:02:00,27.0,19.0,30.05,NW,325,1.0,5.0,70,0.00,,,0.01,,2013-03-20 07:02:00,
2013-03-20 03:12:00,27.0,19.0,30.05,NW,325,1.0,5.0,70,0.00,,,0.01,,2013-03-20 07:12:00,
2013-03-20 03:22:00,27.0,18.0,30.05,NW,306,1.0,6.0,69,0.00,,,0.01,,2013-03-20 07:22:00,
2013-03-20 03:32:00,27.0,19.0,30.05,NNW,344,2.0,8.0,70,0.00,,,0.01,,2013-03-20 07:32:00,
2013-03-20 03:42:00,27.0,19.0,30.05,NNW,344,2.0,8.0,70,0.00,,,0.01,,2013-03-20 07:42:00,
2013-03-20 03:52:00,27.0,18.0,30.04,NNW,331,4.0,8.0,68,0.00,,,0.01,,2013-03-20 07:52:00,
2013-03-20 04:02:00,26.0,17.0,30.04,NNW,333,2.0,8.0,68,0.00,,,0.01,,2013-03-20 08:02:00,
2013-03-20 04:12:00,26.0,17.0,30.04,NNW,333,2.0,8.0,68,0.00,,,0.01,,2013-03-20 08:12:00,
2013-03-20 04:22:00,26.0,18.0,30.04,NNW,340,2.0,9.0,70,0.00,,,0.01,,2013-03-20 08:22:00,
2013-03-20 04:32:00,26.0,17.0,30.04,NW,326,4.0,8.0,69,0.00,,,0.01,,2013-03-20 08:32:00,
2013-03-20 04:42:00,26.0,17.0,30.04,NW,326,4.0,8.0,69,0.00,,,0.01,,2013-03-20 08:42:00,
2013-03-20 04:52:00,25.0,16.0,30.03,NNW,336,2.0,9.0,69,0.00,,,0.01,,2013-03-20 08:52:00,
2013-03-20 05:02:00,25.0,16.0,30.03,NNW,346,3.0,6.0,69,0.00,,,0.01,,2013-03-20 09:02:00,
2013-03-20 05:12:00,25.0,16.0,30.03,NNW,346,3.0,6.0,69,0.00,,,0.01,,2013-03-20 09:12:00,
2013-03-20 05:22:00,24.0,15.0,30.03,NNW,338,3.0,9.0,69,0.00,,,0.01,,2013-03-20 09:22:00,
2013-03-20 05:32:00,24.0,16.0,30.03,NNW,329,3.0,7.0,70,0.00,,,0.01,,2013-03-20 09:32:00,
2013-03-20 05:43:00,24.0,16.0,30.03,NNW,329,3.0,7.0,70,0.00,,,0.01,,2013-03-20 09:43:00,
2013-03-20 05:53:00,23.0,15.0,30.03,NW,319,2.0,7.0,71,0.00,,,0.01,,2013-03-20 09:53:00,
2013-03-20 06:03:00,23.0,15.0,30.03,NNW,332,2.0,7.0,72,0.00,,,0.01,,2013-03-20 10:03:00,
2013-03-20 06:12:00,23.0,15.0,30.03,NNW,332,2.0,7.0,72,0.00,,,0.01,,2013-03-20 10:12:00,
2013-03-20 06:23:00,23.0,15.0,30.03,NNW,340,1.0,9.0,72,0.00,,,0.01,,2013-03-20 10:23:00,
2013-03-20 06:32:00,23.0,15.0,30.03,NNW,327,2.0,8.0,72,0.00,,,0.01,,2013-03-20 10:32:00,
2013-03-20 06:42:00,23.0,15.0,30.03,NNW,327,2.0,8.0,72,0.00,,,0.01,,2013-03-20 10:42:00,
2013-03-20 06:53:00,23.0,15.0,30.03,NNW,344,3.0,9.0,70,0.00,,,0.01,,2013-03-20 10:53:00,
2013-03-20 07:03:00,23.0,15.0,30.03,NNW,341,3.0,8.0,70,0.00,,,0.01,,2013-03-20 11:03:00,
2013-03-20 07:12:00,23.0,15.0,30.03,NNW,341,3.0,8.0,70,0.00,,,0.01,,2013-03-20 11:12:00,
2013-03-20 07:22:00,23.0,15.0,30.03,NNW,341,3.0,8.0,70,0.00,,,0.01,,2013-03-20 11:22:00,
2013-03-20 07:32:00,23.0,15.0,30.03,NNW,343,1.0,9.0,71,0.00,,,0.01,,2013-03-20 11:32:00,
2013-03-20 07:42:00,23.0,15.0,30.03,NNW,343,1.0,9.0,71,0.00,,,0.01,,2013-03-20 11:42:00,
2013-03-20 07:52:00,23.0,15.0,30.04,NW,321,1.0,6.0,72,0.00,,,0.01,,2013-03-20 11:52:00,
2013-03-20 08:02:00,23.0,15.0,30.04,NNW,343,5.0,9.0,71,0.00,,,0.01,,2013-03-20 12:02:00,
2013-03-20 08:12:00,23.0,15.0,30.04,NNW,343,5.0,9.0,71,0.00,,,0.01,,2013-03-20 12:12:00,
2013-03-20 08:22:00,23.0,15.0,30.04,NNW,343,5.0,9.0,71,0.00,,,0.01,,2013-03-20 12:22:00,
2013-03-20 08:32:00,23.0,15.0,30.05,NW,313,4.0,10.0,72,0.00,,,0.01,,2013-03-20 12:32:00,
2013-03-20 08:42:00,23.0,15.0,30.05,NW,313,4.0,10.0,72,0.00,,,0.01,,2013-03-20 12:42:00,
2013-03-20 08:52:00,22.0,14.0,30.05,North,5,3.0,7.0,72,0.00,,,0.01,,2013-03-20 12:52:00,
2013-03-20 09:03:00,22.0,15.0,30.06,NNW,331,2.0,8.0,73,0.00,,,0.01,,2013-03-20 13:03:00,
2013-03-20 09:12:00,22.0,15.0,30.06,NNW,331,2.0,8.0,73,0.00,,,0.01,,2013-03-20 13:12:00,
2013-03-20 09:22:00,22.0,15.0,30.06,NNW,338,2.0,8.0,73,0.00,,,0.01,,2013-03-20 13:22:00,
2013-03-20 09:32:00,22.0,15.0,30.06,NNW,348,3.0,7.0,73,0.00,,,0.01,,2013-03-20 13:32:00,
2013-03-20 09:42:00,22.0,15.0,30.06,NNW,348,3.0,7.0,73,0.00,,,0.01,,2013-03-20 13:42:00,
2013-03-20 09:53:00,22.0,15.0,30.06,NW,315,2.0,9.0,74,0.00,,,0.01,,2013-03-20 13:53:00,
2013-03-20 10:02:00,22.0,15.0,30.06,NNW,337,3.0,9.0,74,0.00,,,0.01,,2013-03-20 14:02:00,
2013-03-20 10:12:00,22.0,15.0,30.06,NNW,337,3.0,9.0,74,0.00,,,0.01,,2013-03-20 14:12:00,
2013-03-20 10:23:00,22.0,15.0,30.06,NNW,337,3.0,8.0,74,0.00,,,0.01,,2013-03-20 14:23:00,
2013-03-20 10:33:00,22.0,15.0,30.06,NNW,344,3.0,7.0,73,0.00,,,0.01,,2013-03-20 14:33:00,
2013-03-20 10:42:00,22.0,15.0,30.06,NNW,344,3.0,7.0,73,0.00,,,0.01,,2013-03-20 14:42:00,
2013-03-20 10:52:00,22.0,14.0,30.06,NW,325,3.0,11.0,72,0.00,,,0.01,,2013-03-20 14:52:00,
2013-03-20 11:02:00,22.0,14.0,30.06,NNW,335,5.0,8.0,70,0.00,,,0.01,,2013-03-20 15:02:00,
2013-03-20 11:12:00,22.0,14.0,30.06,WNW,288,1.0,9.0,71,0.00,,,0.01,,2013-03-20 15:12:00,
2013-03-20 11:22:00,22.0,14.0,30.06,WNW,288,1.0,9.0,71,0.00,,,0.01,,2013-03-20 15:22:00,
2013-03-20 11:33:00,22.0,13.0,30.06,NNW,329,4.0,8.0,68,0.00,,,0.01,,2013-03-20 15:33:00,
2013-03-20 11:43:00,22.0,13.0,30.06,NNW,329,4.0,8.0,68,0.00,,,0.01,,2013-03-20 15:43:00,
2013-03-20 11:53:00,22.0,14.0,30.07,NW,311,2.0,11.0,70,0.00,,,0.01,,2013-03-20 15:53:00,
2013-03-20 12:03:00,21.0,12.0,30.07,North,5,4.0,11.0,69,0.00,,,0.01,,2013-03-20 16:03:00,
2013-03-20 12:12:00,21.0,12.0,30.07,North,5,4.0,11.0,69,0.00,,,0.01,,2013-03-20 16:12:00,
2013-03-20 12:23:00,21.0,12.0,30.07,NNW,336,4.0,10.0,69,0.00,,,0.01,,2013-03-20 16:23:00,
2013-03-20 12:32:00,22.0,13.0,30.08,North,360,5.0,9.0,67,0.00,,,0.01,,2013-03-20 16:32:00,
2013-03-20 12:42:00,22.0,13.0,30.08,North,360,5.0,9.0,67,0.00,,,0.01,,2013-03-20 16:42:00,
2013-03-20 12:53:00,22.0,13.0,30.08,North,9,4.0,9.0,68,0.00,,,0.01,,2013-03-20 16:53:00,
2013-03-20 13:03:00,21.0,11.0,30.07,North,350,5.0,12.0,66,0.00,,,0.01,,2013-03-20 17:03:00,
2013-03-20 13:12:00,21.0,11.0,30.07,North,350,5.0,12.0,66,0.00,,,0.01,,2013-03-20 17:12:00,
2013-03-20 13:22:00,22.0,12.0,30.07,North,5,3.0,9.0,64,0.00,,,0.01,,2013-03-20 17:22:00,
2013-03-20 13:32:00,22.0,12.0,30.08,NW,326,4.0,10.0,64,0.00,,,0.01,,2013-03-20 17:32:00,
2013-03-20 13:42:00,22.0,12.0,30.08,NW,326,4.0,10.0,64,0.00,,,0.01,,2013-03-20 17:42:00,
2013-03-20 13:53:00,23.0,13.0,30.08,NNW,341,4.0,9.0,65,0.00,,,0.01,,2013-03-20 17:53:00,
2013-03-20 14:02:00,24.0,14.0,30.08,NNW,340,5.0,13.0,64,0.00,,,0.01,,2013-03-20 18:02:00,
2013-03-20 14:12:00,24.0,14.0,30.08,NNW,340,5.0,13.0,64,0.00,,,0.01,,2013-03-20 18:12:00,
2013-03-20 14:22:00,22.0,11.0,30.07,WNW,302,3.0,9.0,63,0.00,,,0.01,,2013-03-20 18:22:00,
2013-03-20 14:33:00,22.0,11.0,30.07,NNW,334,5.0,12.0,63,0.00,,,0.01,,2013-03-20 18:33:00,
2013-03-20 14:42:00,22.0,11.0,30.07,NNW,334,5.0,12.0,63,0.00,,,0.01,,2013-03-20 18:42:00,
2013-03-20 14:53:00,23.0,12.0,30.06,NNW,328,2.0,13.0,63,0.00,,,0.01,,2013-03-20 18:53:00,
2013-03-20 15:02:00,23.0,12.0,30.06,NNW,337,4.0,9.0,62,0.00,,,0.01,,2013-03-20 19:02:00,
2013-03-20 15:12:00,23.0,12.0,30.06,NNW,337,4.0,9.0,62,0.00,,,0.01,,2013-03-20 19:12:00,
2013-03-20 15:22:00,25.0,13.0,30.05,WSW,255,5.0,16.0,61,0.00,,,0.01,,2013-03-20 19:22:00,
2013-03-20 15:32:00,24.0,13.0,30.05,North,355,4.0,8.0,62,0.00,,,0.01,,2013-03-20 19:32:00,
2013-03-20 15:42:00,24.0,13.0,30.05,North,355,4.0,8.0,62,0.00,,,0.01,,2013-03-20 19:42:00,
2013-03-20 15:53:00,24.0,14.0,30.04,NW,326,2.0,11.0,66,0.00,,,0.01,,2013-03-20 19:53:00,
2013-03-20 16:02:00,24.0,13.0,30.04,North,355,4.0,14.0,61,0.00,,,0.01,,2013-03-20 20:02:00,
2013-03-20 16:13:00,24.0,13.0,30.04,North,355,4.0,14.0,61,0.00,,,0.01,,2013-03-20 20:13:00,
2013-03-20 16:22:00,25.0,13.0,30.04,NW,321,3.0,8.0,59,0.00,,,0.00,,2013-03-20 20:22:00,
2013-03-20 16:32:00,24.0,12.0,30.03,NNW,328,5.0,12.0,59,0.00,,,0.00,,2013-03-20 20:32:00,
2013-03-20 16:42:00,24.0,12.0,30.03,NNW,328,5.0,12.0,59,0.00,,,0.00,,2013-03-20 20:42:00,
2013-03-20 16:53:00,24.0,12.0,30.04,North,349,6.0,12.0,59,0.00,,,0.00,,2013-03-20 20:53:00,
2013-03-20 17:02:00,23.0,11.0,30.04,North,351,3.0,9.0,60,0.00,,,0.00,,2013-03-20 21:02:00,
2013-03-20 17:12:00,23.0,11.0,30.04,North,351,3.0,9.0,60,0.00,,,0.00,,2013-03-20 21:12:00,
2013-03-20 17:22:00,24.0,13.0,30.04,NNW,342,2.0,10.0,61,0.00,,,0.00,,2013-03-20 21:22:00,
2013-03-20 17:33:00,23.0,12.0,30.03,NNW,345,4.0,9.0,61,0.00,,,0.00,,2013-03-20 21:33:00,
2013-03-20 17:42:00,23.0,12.0,30.03,NNW,345,4.0,9.0,61,0.00,,,0.00,,2013-03-20 21:42:00,
2013-03-20 17:53:00,24.0,13.0,30.04,NW,312,2.0,7.0,62,0.00,,,0.00,,2013-03-20 21:53:00,
2013-03-20 18:03:00,23.0,12.0,30.04,NNW,335,4.0,8.0,63,0.00,,,0.00,,2013-03-20 22:03:00,
2013-03-20 18:12:00,23.0,12.0,30.04,NNW,335,4.0,8.0,63,0.00,,,0.00,,2013-03-20 22:12:00,
2013-03-20 18:23:00,23.0,12.0,30.04,NNW,338,2.0,6.0,62,0.00,,,0.00,,2013-03-20 22:23:00,
2013-03-20 18:32:00,23.0,13.0,30.04,North,355,2.0,9.0,65,0.00,,,0.00,,2013-03-20 22:32:00,
2013-03-20 18:42:00,23.0,13.0,30.04,North,355,2.0,9.0,65,0.00,,,0.00,,2013-03-20 22:42:00,
2013-03-20 18:52:00,23.0,13.0,30.05,NNW,337,2.0,9.0,66,0.00,,,0.00,,2013-03-20 22:52:00,
2013-03-20 19:02:00,22.0,12.0,30.05,NNW,340,5.0,11.0,66,0.00,,,0.00,,2013-03-20 23:02:00,
2013-03-20 19:12:00,22.0,12.0,30.05,NNW,340,5.0,11.0,66,0.00,,,0.00,,2013-03-20 23:12:00,
2013-03-20 19:22:00,22.0,14.0,30.05,North,355,2.0,8.0,70,0.00,,,0.00,,2013-03-20 23:22:00,
2013-03-20 19:32:00,22.0,15.0,30.05,West,269,1.0,5.0,74,0.00,,,0.00,,2013-03-20 23:32:00,
2013-03-20 19:42:00,22.0,15.0,30.05,West,269,1.0,5.0,74,0.00,,,0.00,,2013-03-20 23:42:00,
2013-03-20 19:53:00,22.0,15.0,30.05,North,355,3.0,10.0,75,0.00,,,0.00,,2013-03-20 23:53:00,
2013-03-20 20:02:00,21.0,15.0,30.05,North,360,1.0,5.0,77,0.00,,,0.00,,2013-03-21 00:02:00,
2013-03-20 20:12:00,21.0,15.0,30.05,North,360,1.0,5.0,77,0.00,,,0.00,,2013-03-21 00:12:00,
2013-03-20 20:23:00,21.0,15.0,30.05,NW,317,4.0,12.0,77,0.00,,,0.00,,2013-03-21 00:23:00,
2013-03-20 20:32:00,21.0,17.0,30.05,NNW,330,2.0,9.0,84,0.00,,,0.00,,2013-03-21 00:32:00,
2013-03-20 20:42:00,21.0,17.0,30.05,NNW,330,2.0,9.0,84,0.00,,,0.00,,2013-03-21 00:42:00,
2013-03-20 20:52:00,20.0,16.0,30.05,NNW,327,3.0,9.0,85,0.00,,,0.00,,2013-03-21 00:52:00,
2013-03-20 21:02:00,20.0,17.0,30.05,NNW,342,1.0,6.0,88,0.00,,,0.00,,2013-03-21 01:02:00,
2013-03-20 21:12:00,20.0,17.0,30.05,NNW,342,1.0,6.0,88,0.00,,,0.00,,2013-03-21 01:12:00,
2013-03-20 21:22:00,20.0,17.0,30.06,NW,319,2.0,5.0,88,0.00,,,0.00,,2013-03-21 01:22:00,
2013-03-20 21:32:00,20.0,17.0,30.05,NNW,327,2.0,7.0,89,0.00,,,0.00,,2013-03-21 01:32:00,
2013-03-20 21:42:00,20.0,17.0,30.05,NNW,327,2.0,7.0,89,0.00,,,0.00,,2013-03-21 01:42:00,
2013-03-20 21:53:00,20.0,17.0,30.05,NNW,331,1.0,5.0,88,0.00,,,0.00,,2013-03-21 01:53:00,
2013-03-20 22:02:00,19.0,15.0,30.05,NNW,334,2.0,7.0,84,0.00,,,0.00,,2013-03-21 02:02:00,
2013-03-20 22:12:00,19.0,15.0,30.05,NNW,334,2.0,7.0,84,0.00,,,0.00,,2013-03-21 02:12:00,
2013-03-20 22:22:00,19.0,15.0,30.05,NNW,340,0.0,4.0,83,0.00,,,0.00,,2013-03-21 02:22:00,
2013-03-20 22:32:00,20.0,15.0,30.05,NNW,337,2.0,7.0,81,0.00,,,0.00,,2013-03-21 02:32:00,
2013-03-20 22:42:00,20.0,15.0,30.05,NNW,337,2.0,7.0,81,0.00,,,0.00,,2013-03-21 02:42:00,
2013-03-20 22:52:00,20.0,15.0,30.05,NNW,337,2.0,7.0,81,0.00,,,0.00,,2013-03-21 02:52:00,
2013-03-20 23:02:00,20.0,17.0,30.05,NW,325,2.0,9.0,87,0.00,,,0.00,,2013-03-21 03:02:00,
2013-03-20 23:12:00,20.0,17.0,30.05,NW,325,2.0,9.0,87,0.00,,,0.00,,2013-03-21 03:12:00,
2013-03-20 23:22:00,19.0,16.0,30.05,NNW,327,1.0,5.0,87,0.00,,,0.00,,2013-03-21 03:22:00,
2013-03-20 23:33:00,19.0,16.0,30.05,NNW,337,1.0,6.0,88,0.00,,,0.00,,2013-03-21 03:33:00,
2013-03-20 23:43:00,19.0,16.0,30.05,NNW,337,1.0,6.0,88,0.00,,,0.00,,2013-03-21 03:43:00,
2013-03-20 23:53:00,19.0,16.0,30.05,NW,325,0.0,4.0,89,0.00,,,0.00,,2013-03-21 03:53:00,